createdAt,value
2019-05-21T00:01:45.330Z,15.50
2019-05-21T00:04:28.180Z,15.00
2019-05-21T00:06:53.797Z,15.33
2019-05-21T00:09:25.738Z,14.83
2019-05-21T00:11:56.616Z,15.50
2019-05-21T00:14:30.497Z,13.83
2019-05-21T00:17:01.249Z,14.53
2019-05-21T00:19:31.910Z,14.03
2019-05-21T00:22:02.652Z,13.63
2019-05-21T00:24:33.434Z,13.67
2019-05-21T00:27:07.105Z,14.23
2019-05-21T00:29:57.336Z,14.40
2019-05-21T00:33:04.754Z,14.37
2019-05-21T00:36:14.910Z,14.03
2019-05-21T00:39:34.116Z,13.87
2019-05-21T00:42:06.225Z,14.73
2019-05-21T00:44:40.092Z,15.90
2019-05-21T00:47:15.924Z,15.27
2019-05-21T00:49:47.521Z,15.47
2019-05-21T00:52:18.223Z,15.13
2019-05-21T00:54:49.007Z,14.33
2019-05-21T00:57:20.493Z,13.60
2019-05-21T00:59:51.099Z,14.93
2019-05-21T01:02:22.723Z,14.43
2019-05-21T01:05:00.756Z,16.17
2019-05-21T01:07:25.905Z,14.93
2019-05-21T01:09:56.680Z,14.33
2019-05-21T01:12:27.276Z,15.60
2019-05-21T01:15:09.318Z,16.20
2019-05-21T01:17:44.951Z,15.43
2019-05-21T01:20:15.824Z,15.47
2019-05-21T01:22:50.900Z,16.20
2019-05-21T01:25:21.586Z,16.30
2019-05-21T01:27:54.301Z,15.33
2019-05-21T01:30:26.925Z,14.93
2019-05-21T01:32:58.080Z,14.50
2019-05-21T01:35:29.013Z,14.33
2019-05-21T01:37:59.731Z,14.20
2019-05-21T01:40:32.447Z,14.83
2019-05-21T01:43:03.620Z,14.13
2019-05-21T01:45:34.696Z,14.13
2019-05-21T01:48:05.595Z,13.13
2019-05-21T01:50:36.279Z,14.17
2019-05-21T01:53:08.937Z,13.83
2019-05-21T01:55:40.655Z,14.97
2019-05-21T01:58:14.397Z,14.97
2019-05-21T02:00:45.005Z,14.43
2019-05-21T02:03:15.592Z,14.17
2019-05-21T02:05:46.298Z,15.37
2019-05-21T02:08:16.989Z,15.93
2019-05-21T02:10:50.665Z,15.13
2019-05-21T02:13:21.340Z,15.13
2019-05-21T02:15:52.166Z,16.07
2019-05-21T02:18:22.814Z,15.57
2019-05-21T02:20:54.558Z,16.07
2019-05-21T02:23:25.286Z,16.43
2019-05-21T02:25:56.912Z,16.77
2019-05-21T02:28:40.654Z,17.20
2019-05-21T02:31:11.442Z,18.40
2019-05-21T02:33:43.205Z,17.37
2019-05-21T02:36:18.964Z,18.07
2019-05-21T02:38:51.847Z,18.43
2019-05-21T02:41:22.504Z,19.10
2019-05-21T02:43:53.162Z,18.53
2019-05-21T02:46:23.761Z,19.13
2019-05-21T02:48:54.439Z,19.57
2019-05-21T02:51:25.598Z,19.07
2019-05-21T02:53:56.201Z,19.87
2019-05-21T02:56:26.852Z,19.27
2019-05-21T02:59:06.822Z,19.63
2019-05-21T03:01:39.288Z,20.47
2019-05-21T03:04:09.968Z,20.47
2019-05-21T03:06:40.577Z,20.73
2019-05-21T03:09:11.163Z,20.93
2019-05-21T03:11:41.863Z,21.13
2019-05-21T03:14:12.541Z,22.60
2019-05-21T03:16:43.233Z,21.33
2019-05-21T03:19:16.499Z,24.13
2019-05-21T03:21:46.308Z,25.07
2019-05-21T03:24:17.058Z,25.47
2019-05-21T03:26:47.949Z,26.10
2019-05-21T03:29:18.519Z,22.97
2019-05-21T03:31:49.128Z,22.47
2019-05-21T03:34:19.877Z,24.90
2019-05-21T03:36:54.733Z,26.40
2019-05-21T03:39:25.569Z,25.93
2019-05-21T03:41:58.161Z,25.27
2019-05-21T03:44:30.292Z,26.10
2019-05-21T03:47:01.184Z,27.53
2019-05-21T03:49:33.022Z,26.73
2019-05-21T03:52:04.002Z,27.03
2019-05-21T03:54:49.891Z,27.97
2019-05-21T03:57:20.507Z,29.23
2019-05-21T03:59:52.195Z,28.50
2019-05-21T04:02:22.952Z,28.03
2019-05-21T04:04:56.890Z,27.17
2019-05-21T04:07:27.976Z,28.37
2019-05-21T04:09:58.745Z,25.70
2019-05-21T04:12:29.479Z,29.97
2019-05-21T04:15:01.825Z,26.30
2019-05-21T04:17:34.987Z,29.80
2019-05-21T04:20:06.283Z,27.83
2019-05-21T04:22:43.191Z,29.33
2019-05-21T04:25:20.237Z,26.83
2019-05-21T04:27:53.062Z,28.43
2019-05-21T04:30:24.689Z,27.13
2019-05-21T04:32:58.804Z,28.00
2019-05-21T04:35:29.612Z,28.90
2019-05-21T04:38:00.222Z,28.80
2019-05-21T04:40:32.823Z,26.77
2019-05-21T04:43:03.563Z,25.83
2019-05-21T04:45:34.220Z,25.93
2019-05-21T04:48:04.962Z,26.17
2019-05-21T04:50:35.756Z,25.80
2019-05-21T04:53:10.135Z,26.37
2019-05-21T04:55:40.853Z,25.43
2019-05-21T04:58:11.541Z,25.67
2019-05-21T05:00:47.524Z,26.57
2019-05-21T05:03:18.234Z,25.17
2019-05-21T05:05:48.883Z,25.90
2019-05-21T05:08:19.511Z,26.23
2019-05-21T05:10:50.216Z,24.77
2019-05-21T05:13:22.937Z,25.53
2019-05-21T05:15:53.589Z,27.70
2019-05-21T05:18:24.200Z,26.90
2019-05-21T05:20:54.892Z,28.00
2019-05-21T05:23:27.601Z,28.43
2019-05-21T05:26:03.136Z,28.43
2019-05-21T05:28:33.767Z,27.37
2019-05-21T05:31:07.978Z,27.87
2019-05-21T05:33:39.638Z,27.90
2019-05-21T05:36:10.374Z,26.07
2019-05-21T05:38:41.130Z,27.33
2019-05-21T05:41:11.740Z,29.13
2019-05-21T05:43:42.415Z,28.77
2019-05-21T05:46:12.992Z,28.27
2019-05-21T05:48:45.400Z,28.57
2019-05-21T05:51:17.211Z,28.43
2019-05-21T05:53:57.190Z,29.10
2019-05-21T05:56:28.757Z,27.50
2019-05-21T05:58:59.470Z,28.07
2019-05-21T06:01:31.809Z,27.13
2019-05-21T06:04:04.611Z,27.00
2019-05-21T06:06:35.246Z,27.83
2019-05-21T06:09:10.940Z,28.87
2019-05-21T06:11:41.533Z,30.23
2019-05-21T06:14:14.387Z,29.63
2019-05-21T06:16:50.645Z,26.13
2019-05-21T06:19:22.460Z,24.43
2019-05-21T06:21:54.217Z,24.30
2019-05-21T06:24:24.947Z,24.17
2019-05-21T06:26:55.588Z,24.57
2019-05-21T06:29:26.291Z,23.93
2019-05-21T06:31:56.994Z,23.40
2019-05-21T06:34:31.848Z,23.70
2019-05-21T06:37:02.629Z,25.27
2019-05-21T06:39:33.342Z,24.40
2019-05-21T06:42:06.013Z,22.70
2019-05-21T06:44:37.786Z,23.90
2019-05-21T06:47:08.542Z,22.50
2019-05-21T06:49:39.239Z,21.40
2019-05-21T06:52:10.062Z,21.20
2019-05-21T06:54:40.710Z,20.07
2019-05-21T06:57:11.489Z,21.63
2019-05-21T06:59:42.167Z,20.00
2019-05-21T07:02:13.958Z,20.77
2019-05-21T07:04:44.588Z,20.53
2019-05-21T07:07:15.281Z,21.13
2019-05-21T07:09:45.878Z,20.87
2019-05-21T07:12:16.562Z,21.33
2019-05-21T07:14:47.250Z,21.60
2019-05-21T07:17:17.890Z,21.03
2019-05-21T07:19:49.681Z,22.27
2019-05-21T07:22:24.953Z,22.20
2019-05-21T07:24:55.664Z,22.10
2019-05-21T07:27:26.350Z,21.50
2019-05-21T07:29:57.093Z,23.23
2019-05-21T07:32:28.719Z,21.67
2019-05-21T07:34:59.436Z,22.63
2019-05-21T07:37:30.177Z,21.97
2019-05-21T07:40:01.024Z,21.77
2019-05-21T07:42:32.898Z,23.30
2019-05-21T07:45:03.725Z,22.97
2019-05-21T07:47:34.593Z,22.57
2019-05-21T07:50:06.675Z,21.83
2019-05-21T07:52:38.456Z,22.77
2019-05-21T07:55:13.215Z,22.27
2019-05-21T07:57:45.030Z,24.27
2019-05-21T08:00:16.132Z,22.70
2019-05-21T08:02:46.875Z,22.63
2019-05-21T08:05:18.118Z,22.50
2019-05-21T08:07:48.878Z,23.87
2019-05-21T08:13:39.013Z,23.30
2019-05-21T08:16:09.767Z,22.90
2019-05-21T08:18:40.624Z,26.43
2019-05-21T08:21:11.394Z,25.10
2019-05-21T08:23:42.081Z,24.63
2019-05-21T08:26:12.760Z,26.30
2019-05-21T08:29:01.669Z,25.07
2019-05-21T08:31:37.611Z,24.47
2019-05-21T08:34:11.201Z,24.27
2019-05-21T08:36:41.902Z,23.60
2019-05-21T08:39:28.728Z,23.57
2019-05-21T08:41:56.963Z,24.17
2019-05-21T08:44:27.585Z,23.37
2019-05-21T08:46:58.211Z,23.50
2019-05-21T08:49:38.391Z,22.90
2019-05-21T08:52:26.055Z,20.80
2019-05-21T08:54:56.880Z,20.50
2019-05-21T09:00:55.099Z,22.97
2019-05-21T09:01:58.273Z,21.77
2019-05-21T09:03:35.900Z,21.33
2019-05-21T09:06:06.639Z,22.10
2019-05-21T09:08:37.238Z,21.77
2019-05-21T09:11:07.858Z,21.63
2019-05-21T09:13:38.477Z,22.03
2019-05-21T09:16:09.065Z,20.93
2019-05-21T09:18:39.747Z,21.87
2019-05-21T09:21:16.224Z,22.23
2019-05-21T09:23:47.004Z,23.07
2019-05-21T09:26:17.710Z,22.17
2019-05-21T09:28:48.368Z,22.37
2019-05-21T09:31:19.088Z,22.53
2019-05-21T09:33:49.634Z,21.23
2019-05-21T09:36:20.333Z,22.57
2019-05-21T09:38:50.967Z,21.57
2019-05-21T09:41:21.698Z,21.57
2019-05-21T09:43:52.303Z,21.87
2019-05-21T09:46:27.187Z,22.23
2019-05-21T09:48:57.874Z,22.27
2019-05-21T09:51:28.638Z,22.03
2019-05-21T09:53:59.311Z,20.87
2019-05-21T09:56:37.162Z,22.23
2019-05-21T09:59:26.325Z,21.93
2019-05-21T10:02:16.005Z,20.87
2019-05-21T10:04:46.682Z,21.50
2019-05-21T10:07:17.380Z,22.63
2019-05-21T10:09:48.165Z,21.07
2019-05-21T10:12:27.885Z,21.97
2019-05-21T10:14:58.562Z,22.73
2019-05-21T10:17:30.261Z,23.47
2019-05-21T10:20:00.937Z,21.83
2019-05-21T10:22:31.636Z,21.50
2019-05-21T10:25:02.407Z,22.20
2019-05-21T10:27:33.353Z,23.07
2019-05-21T10:30:14.763Z,23.23
2019-05-21T10:32:55.406Z,23.63
2019-05-21T10:35:26.085Z,22.27
2019-05-21T10:37:56.721Z,24.53
2019-05-21T10:40:28.460Z,23.83
2019-05-21T10:42:59.236Z,22.73
2019-05-21T10:45:29.930Z,22.23
2019-05-21T10:48:00.691Z,23.60
2019-05-21T10:50:31.372Z,22.97
2019-05-21T10:53:02.069Z,22.97
2019-05-21T10:55:32.755Z,21.90
2019-05-21T10:58:03.511Z,21.77
2019-05-21T11:00:39.620Z,21.80
2019-05-21T11:03:13.321Z,21.80
2019-05-21T11:06:08.997Z,21.23
2019-05-21T11:08:29.137Z,20.03
2019-05-21T11:11:00.647Z,22.03
2019-05-21T11:13:50.471Z,20.53
2019-05-21T11:16:21.046Z,20.43
2019-05-21T11:19:07.016Z,21.67
2019-05-21T11:21:39.656Z,21.53
2019-05-21T11:24:12.574Z,21.80
2019-05-21T11:26:43.172Z,21.23
2019-05-21T11:29:13.911Z,21.67
2019-05-21T11:31:56.252Z,21.17
2019-05-21T11:34:24.737Z,21.07
2019-05-21T11:36:55.410Z,21.80
2019-05-21T11:39:26.057Z,23.40
2019-05-21T11:42:04.119Z,22.00
2019-05-21T11:44:34.781Z,21.60
2019-05-21T11:47:05.485Z,22.87
2019-05-21T11:49:36.228Z,21.87
2019-05-21T11:52:06.916Z,21.67
2019-05-21T11:54:38.595Z,21.40
2019-05-21T11:57:09.306Z,21.20
2019-05-21T11:59:40.911Z,20.57
2019-05-21T12:02:11.755Z,22.13
2019-05-21T12:04:42.548Z,20.93
2019-05-21T12:07:13.270Z,21.93
2019-05-21T12:09:50.765Z,21.07
2019-05-21T12:12:21.443Z,20.77
2019-05-21T12:14:52.062Z,21.37
2019-05-21T12:17:22.676Z,22.90
2019-05-21T12:19:53.390Z,21.27
2019-05-21T12:22:24.010Z,22.23
2019-05-21T12:24:54.721Z,21.10
2019-05-21T12:27:25.441Z,21.33
2019-05-21T12:29:57.205Z,21.77
2019-05-21T12:32:34.159Z,22.27
2019-05-21T12:35:11.171Z,21.07
2019-05-21T12:37:41.783Z,21.17
2019-05-21T12:40:13.673Z,22.93
2019-05-21T12:42:44.341Z,21.80
2019-05-21T12:45:15.123Z,22.67
2019-05-21T12:47:45.716Z,22.60
2019-05-21T12:50:17.282Z,22.23
2019-05-21T12:52:47.825Z,22.23
2019-05-21T12:55:24.748Z,21.83
2019-05-21T12:58:02.246Z,23.70
2019-05-21T13:00:37.031Z,22.23
2019-05-21T13:03:12.732Z,22.57
2019-05-21T13:05:46.813Z,22.17
2019-05-21T13:08:18.467Z,21.93
2019-05-21T13:11:00.602Z,23.57
2019-05-21T13:13:31.272Z,21.47
2019-05-21T13:16:02.084Z,22.80
2019-05-21T13:18:33.834Z,22.30
2019-05-21T13:21:08.450Z,22.03
2019-05-21T13:23:38.091Z,21.33
2019-05-21T13:26:10.831Z,21.80
2019-05-21T13:28:49.380Z,21.87
2019-05-21T13:31:25.801Z,22.10
2019-05-21T13:33:57.424Z,20.83
2019-05-21T13:36:38.311Z,19.67
2019-05-21T13:39:31.384Z,20.47
2019-05-21T13:42:03.134Z,21.10
2019-05-21T13:44:34.765Z,21.50
2019-05-21T13:47:05.437Z,20.77
2019-05-21T13:49:42.706Z,21.17
2019-05-21T13:52:13.360Z,21.37
2019-05-21T13:54:45.071Z,21.43
2019-05-21T13:57:16.176Z,21.53
2019-05-21T14:00:06.204Z,21.43
2019-05-21T14:02:37.014Z,19.90
2019-05-21T14:05:09.310Z,19.93
2019-05-21T14:07:40.182Z,20.57
2019-05-21T14:10:16.842Z,20.30
2019-05-21T14:12:50.260Z,20.80
2019-05-21T14:15:26.919Z,20.57
2019-05-21T14:17:59.832Z,21.17
2019-05-21T14:20:30.556Z,18.43
2019-05-21T14:23:15.637Z,20.63
2019-05-21T14:25:55.181Z,20.03
2019-05-21T14:28:34.271Z,20.90
2019-05-21T14:31:12.915Z,19.70
2019-05-21T14:33:47.046Z,19.00
2019-05-21T14:36:17.880Z,18.90
2019-05-21T14:38:51.871Z,18.43
2019-05-21T14:41:22.633Z,19.30
2019-05-21T14:43:57.590Z,19.40
2019-05-21T14:46:28.483Z,19.50
2019-05-21T14:48:59.409Z,20.20
2019-05-21T14:51:36.175Z,19.57
2019-05-21T14:54:06.878Z,19.37
2019-05-21T14:56:56.153Z,19.23
2019-05-21T14:59:33.110Z,19.70
2019-05-21T15:02:07.235Z,19.47
2019-05-21T15:04:43.686Z,19.77
2019-05-21T15:07:20.877Z,19.77
2019-05-21T15:13:14.248Z,20.00
2019-05-21T15:15:46.077Z,20.33
2019-05-21T15:18:22.066Z,21.23
2019-05-21T15:20:56.603Z,20.70
2019-05-21T15:23:30.594Z,21.77
2019-05-21T15:26:02.349Z,20.47
2019-05-21T15:28:33.046Z,21.43
2019-05-21T15:31:03.655Z,22.03
2019-05-21T15:33:34.445Z,22.63
2019-05-21T15:36:09.311Z,22.23
2019-05-21T15:38:51.186Z,22.20
2019-05-21T15:41:21.655Z,22.63
2019-05-21T15:43:53.427Z,22.40
2019-05-21T15:46:25.153Z,22.80
2019-05-21T15:48:55.949Z,22.77
2019-05-21T15:51:28.602Z,23.40
2019-05-21T15:54:16.015Z,21.70
2019-05-21T15:56:46.878Z,21.20
2019-05-21T15:59:17.732Z,21.50
2019-05-21T16:02:00.084Z,21.60
2019-05-21T16:04:30.745Z,21.33
2019-05-21T16:07:01.614Z,21.53
2019-05-21T16:09:33.305Z,21.77
2019-05-21T16:12:04.126Z,21.17
2019-05-21T16:14:34.789Z,20.73
2019-05-21T16:17:15.969Z,21.63
2019-05-21T16:20:06.084Z,21.03
2019-05-21T16:22:36.712Z,20.23
2019-05-21T16:25:07.826Z,20.53
2019-05-21T16:27:38.509Z,20.47
2019-05-21T16:30:17.635Z,21.40
2019-05-21T16:32:48.318Z,19.67
2019-05-21T16:35:19.092Z,20.67
2019-05-21T16:37:49.808Z,20.63
2019-05-21T16:40:20.652Z,19.80
2019-05-21T16:42:52.299Z,20.17
2019-05-21T16:45:23.007Z,19.43
2019-05-21T16:47:54.373Z,20.80
2019-05-21T16:50:25.201Z,21.47
2019-05-21T16:52:55.971Z,21.80
2019-05-21T16:55:27.684Z,20.67
2019-05-21T16:57:58.449Z,20.27
2019-05-21T17:00:29.250Z,20.90
2019-05-21T17:02:59.851Z,19.80
2019-05-21T17:05:35.580Z,19.67
2019-05-21T17:08:06.338Z,20.27
2019-05-21T17:10:37.183Z,19.93
2019-05-21T17:13:08.815Z,20.83
2019-05-21T17:15:45.264Z,20.40
2019-05-21T17:18:15.902Z,20.60
2019-05-21T17:20:46.888Z,22.20
2019-05-21T17:23:19.642Z,23.03
2019-05-21T17:25:50.451Z,22.63
2019-05-21T17:28:27.321Z,21.80
2019-05-21T17:30:58.036Z,22.00
2019-05-21T17:33:28.787Z,23.00
2019-05-21T17:35:59.438Z,22.50
2019-05-21T17:38:30.266Z,20.63
2019-05-21T17:41:00.969Z,19.10
2019-05-21T17:43:32.649Z,20.23
2019-05-21T17:46:03.225Z,20.00
2019-05-21T17:48:37.199Z,20.13
2019-05-21T17:51:09.150Z,20.70
2019-05-21T17:53:41.042Z,20.87
2019-05-21T17:56:11.736Z,21.07
2019-05-21T17:58:42.498Z,20.77
2019-05-21T18:01:15.529Z,22.13
2019-05-21T18:03:46.881Z,23.53
2019-05-21T18:06:18.038Z,23.80
2019-05-21T18:08:49.426Z,24.97
2019-05-21T18:11:20.271Z,24.73
2019-05-21T18:13:51.298Z,25.93
2019-05-21T18:16:22.006Z,26.50
2019-05-21T18:18:53.154Z,26.20
2019-05-21T18:21:24.949Z,26.40
2019-05-21T18:23:56.524Z,27.20
2019-05-21T18:26:27.300Z,26.80
2019-05-21T18:28:58.170Z,27.90
2019-05-21T18:31:30.065Z,27.83
2019-05-21T18:34:00.818Z,25.43
2019-05-21T18:36:32.720Z,26.13
2019-05-21T18:39:06.348Z,25.77
2019-05-21T18:41:37.224Z,24.77
2019-05-21T18:44:10.037Z,23.97
2019-05-21T18:46:44.351Z,24.00
2019-05-21T18:49:15.154Z,25.23
2019-05-21T18:51:46.094Z,25.53
2019-05-21T18:54:17.887Z,22.63
2019-05-21T18:56:48.828Z,23.03
2019-05-21T18:59:19.636Z,24.57
2019-05-21T19:01:52.509Z,24.17
2019-05-21T19:04:23.353Z,23.23
2019-05-21T19:06:54.227Z,23.53
2019-05-21T19:09:26.095Z,22.37
2019-05-21T19:11:57.285Z,22.83
2019-05-21T19:14:28.346Z,21.83
2019-05-21T19:16:59.067Z,22.17
2019-05-21T19:19:30.741Z,23.33
2019-05-21T19:22:05.838Z,22.80
2019-05-21T19:24:36.534Z,22.33
2019-05-21T19:27:07.383Z,21.87
2019-05-21T19:29:39.103Z,21.13
2019-05-21T19:32:19.556Z,20.37
2019-05-21T19:34:50.210Z,19.57
2019-05-21T19:37:20.862Z,20.20
2019-05-21T19:39:51.682Z,19.57
2019-05-21T19:42:22.639Z,20.00
2019-05-21T19:44:53.444Z,19.83
2019-05-21T19:47:24.524Z,20.50
2019-05-21T19:49:55.278Z,20.00
2019-05-21T19:52:26.059Z,20.83
2019-05-21T19:54:56.778Z,20.07
2019-05-21T19:57:30.015Z,19.40
2019-05-21T20:00:08.152Z,20.17
2019-05-21T20:02:39.811Z,20.30
2019-05-21T20:05:18.298Z,20.80
2019-05-21T20:07:49.402Z,22.30
2019-05-21T20:10:20.480Z,21.03
2019-05-21T20:12:52.208Z,20.67
2019-05-21T20:15:24.208Z,19.63
2019-05-21T20:18:06.507Z,20.70
2019-05-21T20:20:27.870Z,19.67
2019-05-21T20:22:58.551Z,19.30
2019-05-21T20:25:29.595Z,20.23
2019-05-21T20:28:00.526Z,19.73
2019-05-21T20:30:31.900Z,19.83
2019-05-21T20:33:02.873Z,21.60
2019-05-21T20:35:34.650Z,21.43
2019-05-21T20:38:07.520Z,21.67
2019-05-21T20:40:38.380Z,21.07
2019-05-21T20:43:10.502Z,21.37
2019-05-21T20:45:41.421Z,21.17
2019-05-21T20:48:13.871Z,20.93
2019-05-21T20:50:44.619Z,22.10
2019-05-21T20:53:15.476Z,22.40
2019-05-21T20:55:47.188Z,21.93
2019-05-21T20:58:18.590Z,23.97
2019-05-21T21:00:58.671Z,22.93
2019-05-21T21:03:30.532Z,23.50
2019-05-21T21:06:01.270Z,24.27
2019-05-21T21:08:34.181Z,23.60
2019-05-21T21:11:06.825Z,24.40
2019-05-21T21:13:37.567Z,22.97
2019-05-21T21:16:10.319Z,22.13
2019-05-21T21:18:43.802Z,23.87
2019-05-21T21:21:16.352Z,22.77
2019-05-21T21:23:48.805Z,21.50
2019-05-21T21:26:19.859Z,23.07
2019-05-21T21:28:54.619Z,23.50
2019-05-21T21:31:25.368Z,25.27
2019-05-21T21:33:57.353Z,23.40
2019-05-21T21:36:34.558Z,23.77
2019-05-21T21:39:07.740Z,22.80
2019-05-21T21:41:40.304Z,24.30
2019-05-21T21:44:15.827Z,23.23
2019-05-21T21:47:00.115Z,24.57
2019-05-21T21:49:32.504Z,24.97
2019-05-21T21:52:07.002Z,25.00
2019-05-21T21:54:39.693Z,27.17
2019-05-21T21:57:10.750Z,24.53
2019-05-21T21:59:44.059Z,24.80
2019-05-21T22:02:24.439Z,25.63
2019-05-21T22:04:55.940Z,26.40
2019-05-21T22:07:28.764Z,25.90
2019-05-21T22:10:00.177Z,25.73
2019-05-21T22:12:31.482Z,26.63
2019-05-21T22:15:02.658Z,26.77
2019-05-21T22:17:34.474Z,26.37
2019-05-21T22:20:08.619Z,25.80
2019-05-21T22:22:41.532Z,27.23
2019-05-21T22:25:12.361Z,27.23
2019-05-21T22:27:43.180Z,27.20
2019-05-21T22:30:19.171Z,27.97
2019-05-21T22:32:52.546Z,27.40
2019-05-21T22:35:26.695Z,28.57
2019-05-21T22:37:57.490Z,29.07
2019-05-21T22:40:28.200Z,27.33
2019-05-21T22:43:02.578Z,27.43
2019-05-21T22:45:33.251Z,28.07
2019-05-21T22:48:11.247Z,26.97
2019-05-21T22:50:43.407Z,27.83
2019-05-21T22:53:14.337Z,27.10
2019-05-21T22:55:45.031Z,29.47
2019-05-21T22:58:15.703Z,28.47
2019-05-21T23:00:46.540Z,29.13
2019-05-21T23:03:18.302Z,28.00
2019-05-21T23:05:49.126Z,29.57
2019-05-21T23:08:25.863Z,30.20
2019-05-21T23:10:56.742Z,30.00
2019-05-21T23:13:27.565Z,29.67
2019-05-21T23:15:58.685Z,30.40
2019-05-21T23:18:37.516Z,29.50
2019-05-21T23:21:16.642Z,28.73
2019-05-21T23:23:53.279Z,30.00
2019-05-21T23:26:23.913Z,29.13
2019-05-21T23:28:54.581Z,30.90
2019-05-21T23:31:26.139Z,29.30
2019-05-21T23:33:58.570Z,28.77
2019-05-21T23:36:37.555Z,30.17
2019-05-21T23:39:09.913Z,31.47
2019-05-21T23:41:44.327Z,31.43
2019-05-21T23:44:15.584Z,30.50
2019-05-21T23:46:46.266Z,30.40
2019-05-21T23:49:22.999Z,31.10
2019-05-21T23:51:54.779Z,33.27
2019-05-21T23:54:25.403Z,33.23
2019-05-21T23:56:57.715Z,33.70
2019-05-21T23:59:32.273Z,33.63
